createdAt,value
2018-07-31T00:03:46.000Z,1006.881
2018-07-31T00:13:46.000Z,1006.859
2018-07-31T00:23:46.000Z,1006.847
2018-07-31T00:33:46.000Z,1006.918
2018-07-31T00:43:46.000Z,1006.813
2018-07-31T00:53:46.000Z,1006.857
2018-07-31T01:03:46.000Z,1006.823
2018-07-31T01:13:46.000Z,1006.8
2018-07-31T01:23:46.000Z,1006.798
2018-07-31T01:33:46.000Z,1006.838
2018-07-31T01:43:46.000Z,1006.874
2018-07-31T01:53:46.000Z,1006.845
2018-07-31T02:03:46.000Z,1006.729
2018-07-31T02:13:46.000Z,1006.731
2018-07-31T02:23:46.000Z,1006.649
2018-07-31T02:33:46.000Z,1006.632
2018-07-31T02:43:46.000Z,1006.71
2018-07-31T02:53:46.000Z,1006.687
2018-07-31T03:03:46.000Z,1006.755
2018-07-31T03:13:46.000Z,1006.8
2018-07-31T03:23:46.000Z,1006.836
2018-07-31T03:33:46.000Z,1007.024
2018-07-31T03:43:46.000Z,1007.04
2018-07-31T03:53:46.000Z,1007.013
2018-07-31T04:03:46.000Z,1007.173
2018-07-31T04:13:46.000Z,1007.28
2018-07-31T04:23:46.000Z,1007.196
2018-07-31T04:33:46.000Z,1007.236
2018-07-31T04:43:46.000Z,1007.265
2018-07-31T04:53:46.000Z,1007.352
2018-07-31T05:03:46.000Z,1007.268
2018-07-31T05:13:46.000Z,1007.422
2018-07-31T05:23:46.000Z,1007.482
2018-07-31T05:33:46.000Z,1007.494
2018-07-31T05:43:46.000Z,1007.561
2018-07-31T05:53:46.000Z,1007.56
2018-07-31T06:03:46.000Z,1007.657
2018-07-31T06:13:46.000Z,1007.786
2018-07-31T06:23:46.000Z,1007.837
2018-07-31T06:33:47.000Z,1007.888
2018-07-31T06:43:47.000Z,1007.926
2018-07-31T06:53:47.000Z,1008.055
2018-07-31T07:03:47.000Z,1008.04
2018-07-31T07:13:47.000Z,1007.984
2018-07-31T07:23:47.000Z,1008.039
2018-07-31T07:33:47.000Z,1008.097
2018-07-31T07:43:47.000Z,1008.042
2018-07-31T07:53:47.000Z,1007.946
2018-07-31T08:03:47.000Z,1007.912
2018-07-31T08:13:47.000Z,1007.927
2018-07-31T08:23:47.000Z,1007.989
2018-07-31T08:33:47.000Z,1008.051
2018-07-31T08:43:47.000Z,1008.043
2018-07-31T08:53:47.000Z,1008.091
2018-07-31T09:03:47.000Z,1008.007
2018-07-31T09:13:47.000Z,1008.041
2018-07-31T09:23:47.000Z,1008.098
2018-07-31T09:33:47.000Z,1008.196
2018-07-31T09:43:47.000Z,1008.084
2018-07-31T09:53:47.000Z,1008.067
2018-07-31T10:03:47.000Z,1008.098
2018-07-31T10:13:47.000Z,1008.021
2018-07-31T10:23:47.000Z,1008.063
2018-07-31T10:33:47.000Z,1008.09
2018-07-31T10:43:47.000Z,1008.085
2018-07-31T10:53:47.000Z,1008.233
2018-07-31T11:03:47.000Z,1008.277
2018-07-31T11:13:47.000Z,1008.395
2018-07-31T11:23:47.000Z,1008.352
2018-07-31T11:33:47.000Z,1008.317
2018-07-31T11:43:47.000Z,1008.266
2018-07-31T11:53:47.000Z,1008.191
2018-07-31T12:03:47.000Z,1008.141
2018-07-31T12:13:47.000Z,1008.221
2018-07-31T12:23:47.000Z,1008.222
2018-07-31T12:33:47.000Z,1008.23
2018-07-31T12:43:47.000Z,1008.257
2018-07-31T12:53:47.000Z,1008.29
2018-07-31T13:03:48.000Z,1008.276
2018-07-31T13:13:47.000Z,1008.296
2018-07-31T13:23:47.000Z,1008.3
2018-07-31T13:33:47.000Z,1008.279
2018-07-31T13:43:47.000Z,1008.432
2018-07-31T13:53:48.000Z,1008.556
2018-07-31T14:03:47.000Z,1008.607
2018-07-31T14:13:47.000Z,1008.572
2018-07-31T14:23:47.000Z,1008.639
2018-07-31T14:33:48.000Z,1008.707
2018-07-31T14:43:48.000Z,1008.689
2018-07-31T14:53:48.000Z,1008.76
2018-07-31T15:03:48.000Z,1008.79
2018-07-31T15:13:48.000Z,1008.78
2018-07-31T15:23:48.000Z,1008.856
2018-07-31T15:33:48.000Z,1008.921
2018-07-31T15:43:48.000Z,1008.884
2018-07-31T15:53:48.000Z,1008.905
2018-07-31T16:03:48.000Z,1008.99
2018-07-31T16:13:48.000Z,1008.97
2018-07-31T16:23:48.000Z,1008.96
2018-07-31T16:33:48.000Z,1009.008
2018-07-31T16:43:48.000Z,1009.015
2018-07-31T16:53:48.000Z,1009.173
2018-07-31T17:03:48.000Z,1009.317
2018-07-31T17:13:48.000Z,1009.464
2018-07-31T17:23:48.000Z,1009.555
2018-07-31T17:33:48.000Z,1009.602
2018-07-31T17:43:48.000Z,1009.683
2018-07-31T17:53:48.000Z,1009.79
2018-07-31T18:03:48.000Z,1009.962
2018-07-31T18:13:48.000Z,1010.112
2018-07-31T18:23:48.000Z,1010.163
2018-07-31T18:33:48.000Z,1010.267
2018-07-31T18:43:48.000Z,1010.473
2018-07-31T18:53:48.000Z,1010.649
2018-07-31T19:03:48.000Z,1010.789
2018-07-31T19:13:48.000Z,1010.936
2018-07-31T19:23:48.000Z,1011.117
2018-07-31T19:33:49.000Z,1011.183
2018-07-31T19:43:48.000Z,1011.159
2018-07-31T19:53:48.000Z,1011.263
2018-07-31T20:03:48.000Z,1011.411
2018-07-31T20:13:49.000Z,1011.51
2018-07-31T20:23:48.000Z,1011.684
2018-07-31T20:33:48.000Z,1011.781
2018-07-31T20:43:48.000Z,1011.858
2018-07-31T20:53:48.000Z,1012.008
2018-07-31T21:03:48.000Z,1012.141
2018-07-31T21:13:48.000Z,1012.196
2018-07-31T21:23:48.000Z,1012.208
2018-07-31T21:33:48.000Z,1012.286
2018-07-31T21:43:48.000Z,1012.233
2018-07-31T21:53:48.000Z,1012.41
2018-07-31T22:03:48.000Z,1012.466
2018-07-31T22:13:48.000Z,1012.503
2018-07-31T22:23:49.000Z,1012.568
2018-07-31T22:33:49.000Z,1012.631
2018-07-31T22:43:49.000Z,1012.672
2018-07-31T22:53:49.000Z,1012.78
2018-07-31T23:03:49.000Z,1012.9
2018-07-31T23:13:49.000Z,1012.997
2018-07-31T23:23:49.000Z,1012.949
2018-07-31T23:33:49.000Z,1012.926
2018-07-31T23:43:49.000Z,1012.925
2018-07-31T23:53:49.000Z,1012.989
